createdAt,value
2023-08-15T00:00:34.063Z,98382.08
2023-08-15T00:04:13.343Z,98381.71
2023-08-15T00:07:49.718Z,98379.19
2023-08-15T00:11:27.037Z,98378.84
2023-08-15T00:15:05.530Z,98384.40
2023-08-15T00:18:43.676Z,98382.99
2023-08-15T00:22:20.109Z,98380.18
2023-08-15T00:25:58.053Z,98377.11
2023-08-15T00:29:41.396Z,98378.03
2023-08-15T00:33:31.973Z,98374.34
2023-08-15T00:36:57.287Z,98372.55
2023-08-15T00:40:40.676Z,98369.17
2023-08-15T00:44:12.537Z,98365.04
2023-08-15T00:47:50.804Z,98364.02
2023-08-15T00:51:28.369Z,98365.34
2023-08-15T00:55:09.382Z,98367.20
2023-08-15T00:58:43.539Z,98372.13
2023-08-15T01:02:21.083Z,98372.58
2023-08-15T01:05:58.674Z,98369.88
2023-08-15T01:09:38.465Z,98366.57
2023-08-15T01:13:37.625Z,98365.98
2023-08-15T01:17:06.552Z,98367.52
2023-08-15T01:20:44.711Z,98367.77
2023-08-15T01:24:21.728Z,98365.51
2023-08-15T01:27:57.736Z,98367.42
2023-08-15T01:31:41.367Z,98365.86
2023-08-15T01:35:25.821Z,98367.58
2023-08-15T01:39:05.066Z,98362.66
2023-08-15T01:42:34.254Z,98364.20
2023-08-15T01:46:09.879Z,98362.09
2023-08-15T01:49:47.275Z,98362.79
2023-08-15T01:53:24.950Z,98364.28
2023-08-15T01:57:02.730Z,98364.21
2023-08-15T02:00:48.166Z,98360.90
2023-08-15T02:04:21.038Z,98362.55
2023-08-15T02:07:55.884Z,98362.42
2023-08-15T02:11:33.578Z,98359.55
2023-08-15T02:15:11.125Z,98358.56
2023-08-15T02:18:49.202Z,98361.40
2023-08-15T02:22:26.181Z,98358.08
2023-08-15T02:26:04.212Z,98354.84
2023-08-15T02:29:41.717Z,98353.58
2023-08-15T02:33:19.823Z,98358.11
2023-08-15T02:36:57.130Z,98359.69
2023-08-15T02:40:35.139Z,98359.08
2023-08-15T02:44:14.086Z,98360.05
2023-08-15T02:47:51.376Z,98358.81
2023-08-15T02:51:29.755Z,98360.09
2023-08-15T02:55:06.634Z,98359.27
2023-08-15T02:58:43.210Z,98358.83
2023-08-15T03:02:20.832Z,98358.27
2023-08-15T03:06:02.530Z,98360.33
2023-08-15T03:09:36.066Z,98359.96
2023-08-15T03:13:13.860Z,98363.34
2023-08-15T03:16:51.541Z,98366.52
2023-08-15T03:20:30.836Z,98360.58
2023-08-15T03:24:07.864Z,98358.54
2023-08-15T03:27:44.467Z,98353.89
2023-08-15T03:31:22.517Z,98355.05
2023-08-15T03:35:21.590Z,98355.48
2023-08-15T03:38:47.847Z,98358.52
2023-08-15T03:42:27.076Z,98357.84
2023-08-15T03:46:04.753Z,98360.09
2023-08-15T03:49:40.934Z,98360.24
2023-08-15T03:53:37.299Z,98363.50
2023-08-15T03:57:02.794Z,98364.30
2023-08-15T04:00:40.637Z,98366.15
2023-08-15T04:04:18.109Z,98363.27
2023-08-15T04:07:56.069Z,98364.91
2023-08-15T04:11:36.406Z,98365.21
2023-08-15T04:15:11.874Z,98365.48
2023-08-15T04:18:48.861Z,98368.09
2023-08-15T04:22:26.690Z,98372.39
2023-08-15T04:26:04.504Z,98375.58
2023-08-15T04:29:41.817Z,98376.05
2023-08-15T04:33:38.396Z,98379.31
2023-08-15T04:37:03.057Z,98381.91
2023-08-15T04:40:44.973Z,98382.42
2023-08-15T04:44:18.418Z,98381.65
2023-08-15T04:47:56.323Z,98384.52
2023-08-15T04:51:33.817Z,98382.69
2023-08-15T04:55:30.388Z,98387.92
2023-08-15T04:58:55.186Z,98380.73
2023-08-15T05:02:32.843Z,98385.00
2023-08-15T05:06:12.419Z,98381.23
2023-08-15T05:09:48.658Z,98382.09
2023-08-15T05:13:26.010Z,98383.14
2023-08-15T05:17:03.932Z,98386.27
2023-08-15T05:21:00.232Z,98383.00
2023-08-15T05:24:26.461Z,98391.10
2023-08-15T05:28:22.785Z,98392.88
2023-08-15T05:31:48.316Z,98395.45
2023-08-15T05:35:27.212Z,98396.48
2023-08-15T05:39:22.802Z,98402.71
2023-08-15T05:43:09.194Z,98399.79
2023-08-15T05:46:55.010Z,98402.27
2023-08-15T05:50:40.762Z,98403.67
2023-08-15T05:54:08.793Z,98403.53
2023-08-15T05:57:45.235Z,98403.54
2023-08-15T06:01:24.052Z,98403.63
2023-08-15T06:05:00.657Z,98405.52
2023-08-15T06:08:38.328Z,98407.38
2023-08-15T06:12:15.967Z,98406.38
2023-08-15T06:15:53.748Z,98404.61
2023-08-15T06:19:31.501Z,98407.18
2023-08-15T06:23:09.032Z,98409.16
2023-08-15T06:26:46.737Z,98411.44
2023-08-15T06:30:24.514Z,98412.03
2023-08-15T06:34:06.246Z,98416.79
2023-08-15T06:37:39.839Z,98416.54
2023-08-15T06:41:18.061Z,98418.81
2023-08-15T06:45:12.533Z,98421.05
2023-08-15T06:48:58.003Z,98421.80
2023-08-15T06:52:24.549Z,98420.04
2023-08-15T06:56:02.715Z,98420.63
2023-08-15T06:59:58.217Z,98425.52
2023-08-15T07:03:26.222Z,98427.05
2023-08-15T07:07:23.558Z,98430.55
2023-08-15T07:11:09.142Z,98430.98
2023-08-15T07:14:53.511Z,98432.94
2023-08-15T07:18:20.779Z,98430.01
2023-08-15T07:21:56.693Z,98432.13
2023-08-15T07:25:34.165Z,98430.10
2023-08-15T07:29:12.868Z,98429.95
2023-08-15T07:32:49.746Z,98428.86
2023-08-15T07:36:27.283Z,98432.23
2023-08-15T07:40:11.076Z,98426.50
2023-08-15T07:43:42.571Z,98430.80
2023-08-15T07:47:23.690Z,98427.15
2023-08-15T07:50:58.187Z,98426.73
2023-08-15T07:54:37.542Z,98426.63
2023-08-15T07:58:13.796Z,98429.08
2023-08-15T08:01:53.533Z,98423.98
2023-08-15T08:05:32.847Z,98427.23
2023-08-15T08:09:07.386Z,98427.13
2023-08-15T08:13:05.035Z,98426.88
2023-08-15T08:16:32.799Z,98429.17
2023-08-15T08:20:14.018Z,98429.38
2023-08-15T08:23:45.384Z,98429.87
2023-08-15T08:27:45.955Z,98428.48
2023-08-15T08:31:11.192Z,98430.33
2023-08-15T08:34:49.006Z,98428.67
2023-08-15T08:38:28.556Z,98431.79
2023-08-15T08:42:04.970Z,98432.03
2023-08-15T08:45:49.400Z,98433.61
2023-08-15T08:49:21.848Z,98428.20
2023-08-15T08:52:57.603Z,98420.66
2023-08-15T08:56:35.314Z,98419.40
2023-08-15T09:00:16.081Z,98421.77
2023-08-15T09:03:50.490Z,98419.96
2023-08-15T09:07:28.020Z,98419.23
2023-08-15T09:11:06.350Z,98420.53
2023-08-15T09:14:43.430Z,98416.26
2023-08-15T09:18:25.729Z,98420.35
2023-08-15T09:21:59.196Z,98424.59
2023-08-15T09:25:56.418Z,98422.70
2023-08-15T09:29:23.038Z,98422.71
2023-08-15T09:33:02.255Z,98415.48
2023-08-15T09:36:36.590Z,98410.42
2023-08-15T09:40:26.828Z,98406.29
2023-08-15T09:43:54.974Z,98407.11
2023-08-15T09:47:31.078Z,98408.10
2023-08-15T09:51:28.259Z,98400.35
2023-08-15T09:54:53.108Z,98396.71
2023-08-15T09:58:30.864Z,98391.33
2023-08-15T10:02:23.645Z,98382.64
2023-08-15T10:05:56.129Z,98382.54
2023-08-15T10:09:30.815Z,98379.27
2023-08-15T10:13:08.936Z,98375.61
2023-08-15T10:16:43.988Z,98382.31
2023-08-15T10:20:43.414Z,98380.77
2023-08-15T10:24:10.032Z,98385.60
2023-08-15T10:27:55.317Z,98384.23
2023-08-15T10:31:37.368Z,98383.27
2023-08-15T10:35:32.110Z,98382.30
2023-08-15T10:39:18.526Z,98376.17
2023-08-15T10:43:06.056Z,98373.73
2023-08-15T10:46:51.993Z,98371.87
2023-08-15T10:50:17.408Z,98375.13
2023-08-15T10:54:15.756Z,98376.21
2023-08-15T10:57:42.412Z,98381.39
2023-08-15T11:01:21.298Z,98371.52
2023-08-15T11:04:57.406Z,98368.18
2023-08-15T11:08:56.127Z,98364.34
2023-08-15T11:12:21.007Z,98367.60
2023-08-15T11:16:00.100Z,98365.04
2023-08-15T11:19:36.439Z,98366.98
2023-08-15T11:23:13.901Z,98366.98
2023-08-15T11:26:52.244Z,98367.10
2023-08-15T11:30:30.083Z,98364.92
2023-08-15T11:34:07.802Z,98362.62
2023-08-15T11:37:44.993Z,98362.83
2023-08-15T11:41:22.959Z,98357.77
2023-08-15T11:45:10.511Z,98355.48
2023-08-15T11:48:37.932Z,98355.04
2023-08-15T11:52:18.349Z,98348.76
2023-08-15T11:56:12.167Z,98350.34
2023-08-15T11:59:55.844Z,98347.23
2023-08-15T12:03:20.894Z,98343.11
2023-08-15T12:06:59.165Z,98342.19
2023-08-15T12:10:36.332Z,98338.80
2023-08-15T12:14:21.508Z,98334.96
2023-08-15T12:17:52.090Z,98327.87
2023-08-15T12:21:28.991Z,98331.40
2023-08-15T12:25:09.110Z,98331.86
2023-08-15T12:28:45.477Z,98330.11
2023-08-15T12:32:22.940Z,98323.81
2023-08-15T12:35:59.823Z,98318.99
2023-08-15T12:39:37.520Z,98314.55
2023-08-15T12:43:15.139Z,98311.23
2023-08-15T12:46:52.973Z,98309.89
2023-08-15T12:50:49.751Z,98306.02
2023-08-15T12:54:34.638Z,98310.14
2023-08-15T12:58:01.290Z,98311.64
2023-08-15T13:01:41.309Z,98309.52
2023-08-15T13:05:33.748Z,98305.79
2023-08-15T13:08:58.652Z,98301.60
2023-08-15T13:12:55.704Z,98299.33
2023-08-15T13:16:20.436Z,98298.58
2023-08-15T13:19:58.061Z,98291.58
2023-08-15T13:23:35.750Z,98294.54
2023-08-15T13:27:32.131Z,98289.92
2023-08-15T13:30:58.573Z,98289.98
2023-08-15T13:34:34.972Z,98284.30
2023-08-15T13:38:14.198Z,98284.46
2023-08-15T13:41:50.574Z,98289.17
2023-08-15T13:45:28.190Z,98288.42
2023-08-15T13:49:06.425Z,98284.61
2023-08-15T13:52:43.367Z,98280.38
2023-08-15T13:56:21.012Z,98285.04
2023-08-15T13:59:58.819Z,98278.25
2023-08-15T14:03:39.716Z,98281.89
2023-08-15T14:07:14.171Z,98276.39
2023-08-15T14:10:52.190Z,98278.95
2023-08-15T14:14:29.527Z,98277.52
2023-08-15T14:18:08.424Z,98272.13
2023-08-15T14:21:45.167Z,98271.03
2023-08-15T14:25:22.582Z,98269.52
2023-08-15T14:29:00.193Z,98266.41
2023-08-15T14:32:38.039Z,98267.05
2023-08-15T14:36:15.494Z,98259.36
2023-08-15T14:40:12.206Z,98254.81
2023-08-15T14:43:55.839Z,98252.69
2023-08-15T14:47:29.449Z,98249.29
2023-08-15T14:51:17.122Z,98248.11
2023-08-15T14:54:42.016Z,98247.38
2023-08-15T14:58:19.856Z,98243.86
2023-08-15T15:01:59.100Z,98241.77
2023-08-15T15:05:35.098Z,98235.64
2023-08-15T15:09:12.933Z,98231.88
2023-08-15T15:12:50.580Z,98229.84
2023-08-15T15:16:28.330Z,98224.55
2023-08-15T15:20:07.973Z,98222.98
2023-08-15T15:24:05.536Z,98221.37
2023-08-15T15:27:31.347Z,98220.80
2023-08-15T15:31:09.207Z,98219.45
2023-08-15T15:34:47.234Z,98215.13
2023-08-15T15:38:24.452Z,98218.55
2023-08-15T15:42:02.288Z,98216.48
2023-08-15T15:45:40.396Z,98218.94
2023-08-15T15:49:18.568Z,98217.67
2023-08-15T15:52:55.451Z,98208.54
2023-08-15T15:56:51.774Z,98204.70
2023-08-15T16:00:22.447Z,98202.32
2023-08-15T16:03:54.958Z,98199.83
2023-08-15T16:07:32.655Z,98190.48
2023-08-15T16:11:10.730Z,98193.69
2023-08-15T16:14:47.197Z,98192.13
2023-08-15T16:18:25.503Z,98192.63
2023-08-15T16:22:06.578Z,98194.40
2023-08-15T16:25:40.330Z,98192.98
2023-08-15T16:29:17.904Z,98188.29
2023-08-15T16:33:15.090Z,98185.08
2023-08-15T16:36:41.231Z,98189.88
2023-08-15T16:40:19.006Z,98189.23
2023-08-15T16:43:57.612Z,98182.98
2023-08-15T16:47:37.634Z,98182.46
2023-08-15T16:51:12.019Z,98181.27
2023-08-15T16:55:08.885Z,98174.48
2023-08-15T16:58:33.953Z,98181.20
2023-08-15T17:02:30.542Z,98179.83
2023-08-15T17:06:02.268Z,98180.05
2023-08-15T17:09:35.680Z,98182.83
2023-08-15T17:13:12.364Z,98180.68
2023-08-15T17:16:48.998Z,98179.30
2023-08-15T17:20:27.296Z,98180.85
2023-08-15T17:24:05.000Z,98178.56
2023-08-15T17:27:41.879Z,98184.70
2023-08-15T17:31:20.293Z,98184.20
2023-08-15T17:34:57.334Z,98188.70
2023-08-15T17:38:36.708Z,98192.63
2023-08-15T17:42:12.810Z,98196.02
2023-08-15T17:45:51.189Z,98194.67
2023-08-15T17:49:28.200Z,98197.88
2023-08-15T17:53:05.989Z,98199.05
2023-08-15T17:56:43.506Z,98199.70
2023-08-15T18:00:21.486Z,98203.05
2023-08-15T18:04:05.272Z,98203.39
2023-08-15T18:07:36.842Z,98208.77
2023-08-15T18:11:17.435Z,98211.89
2023-08-15T18:14:51.919Z,98220.98
2023-08-15T18:18:33.644Z,98232.05
2023-08-15T18:22:09.078Z,98239.59
2023-08-15T18:25:44.848Z,98239.64
2023-08-15T18:29:23.606Z,98245.77
2023-08-15T18:33:03.497Z,98248.86
2023-08-15T18:36:57.362Z,98254.70
2023-08-15T18:40:23.634Z,98260.79
2023-08-15T18:44:01.329Z,98271.51
2023-08-15T18:47:38.507Z,98278.68
2023-08-15T18:51:17.306Z,98287.27
2023-08-15T18:54:53.184Z,98288.26
2023-08-15T18:58:30.771Z,98293.48
2023-08-15T19:02:09.544Z,98291.92
2023-08-15T19:05:47.244Z,98296.30
2023-08-15T19:09:23.929Z,98292.80
2023-08-15T19:13:01.674Z,98293.87
2023-08-15T19:16:39.190Z,98294.45
2023-08-15T19:20:19.059Z,98297.33
2023-08-15T19:23:55.563Z,98294.84
2023-08-15T19:27:33.461Z,98294.29
2023-08-15T19:31:12.744Z,98295.02
2023-08-15T19:34:49.137Z,98291.04
2023-08-15T19:38:25.150Z,98286.63
2023-08-15T19:42:03.189Z,98288.39
2023-08-15T19:45:40.670Z,98296.82
2023-08-15T19:49:18.751Z,98292.02
2023-08-15T19:52:56.180Z,98290.68
2023-08-15T19:56:33.732Z,98293.29
2023-08-15T20:00:11.838Z,98288.77
2023-08-15T20:03:49.114Z,98288.75
2023-08-15T20:07:26.830Z,98282.80
2023-08-15T20:11:05.461Z,98277.65
2023-08-15T20:14:43.212Z,98278.49
2023-08-15T20:18:24.589Z,98272.63
2023-08-15T20:21:59.443Z,98272.81
2023-08-15T20:25:35.219Z,98274.45
2023-08-15T20:29:12.834Z,98276.73
2023-08-15T20:32:50.594Z,98273.09
2023-08-15T20:36:28.296Z,98270.59
2023-08-15T20:40:06.286Z,98266.61
2023-08-15T20:44:02.496Z,98269.05
2023-08-15T20:47:27.461Z,98268.89
2023-08-15T20:51:05.174Z,98265.86
2023-08-15T20:54:44.289Z,98267.98
2023-08-15T20:58:20.353Z,98269.64
2023-08-15T21:02:17.081Z,98276.68
2023-08-15T21:06:01.008Z,98279.05
2023-08-15T21:09:45.045Z,98277.02
2023-08-15T21:13:11.190Z,98279.35
2023-08-15T21:16:48.805Z,98278.30
2023-08-15T21:20:28.396Z,98282.67
2023-08-15T21:24:04.596Z,98282.58
2023-08-15T21:28:00.618Z,98276.17
2023-08-15T21:31:27.046Z,98273.92
2023-08-15T21:35:02.932Z,98275.83
2023-08-15T21:38:41.170Z,98281.48
2023-08-15T21:42:41.322Z,98284.05
2023-08-15T21:46:25.224Z,98283.08
2023-08-15T21:49:53.514Z,98285.65
2023-08-15T21:53:48.792Z,98282.09
2023-08-15T21:57:15.319Z,98282.34
2023-08-15T22:00:52.991Z,98281.31
2023-08-15T22:04:30.846Z,98284.75
2023-08-15T22:08:28.878Z,98285.09
2023-08-15T22:11:54.289Z,98285.73
2023-08-15T22:15:31.940Z,98280.34
2023-08-15T22:19:09.650Z,98277.20
2023-08-15T22:22:51.445Z,98279.09
2023-08-15T22:26:25.047Z,98279.52
2023-08-15T22:30:03.059Z,98280.92
2023-08-15T22:33:41.009Z,98280.58
2023-08-15T22:37:18.076Z,98280.52
2023-08-15T22:40:55.674Z,98282.90
2023-08-15T22:44:36.383Z,98283.20
2023-08-15T22:48:11.149Z,98299.16
2023-08-15T22:51:48.714Z,98305.95
2023-08-15T22:55:45.191Z,98306.23
2023-08-15T22:59:10.760Z,98310.09
2023-08-15T23:02:48.347Z,98309.09
2023-08-15T23:06:26.444Z,98303.79
2023-08-15T23:10:04.438Z,98299.96
2023-08-15T23:13:41.563Z,98294.17
2023-08-15T23:17:18.919Z,98286.54
2023-08-15T23:20:59.589Z,98286.98
2023-08-15T23:24:34.322Z,98275.39
2023-08-15T23:28:12.270Z,98271.10
2023-08-15T23:31:49.601Z,98267.19
2023-08-15T23:35:27.313Z,98265.83
2023-08-15T23:39:25.438Z,98259.81
2023-08-15T23:42:50.429Z,98253.60
2023-08-15T23:46:28.731Z,98256.64
2023-08-15T23:50:06.391Z,98251.69
2023-08-15T23:53:43.331Z,98250.58
2023-08-15T23:57:21.693Z,98246.65
